Time;durP1;ratioP1;P1;durP2;ratioP2;P2;SDS_P1;SDS_P2;PMS_P1;PMS_P2;Temp;Humidity;BMP_temperature;BMP_pressure;BME280_temperature;BME280_humidity;BME280_pressure;Samples;Min_cycle;Max_cycle;Signal;HPM_P1;HPM_P2
2021/09/10 00:01:16;;;;;;;8.93;5.50;;;;;;;15.84;72.00;100907.13;5028971;28;20195;-68
2021/09/10 00:03:46;;;;;;;9.70;5.63;;;;;;;15.83;71.62;100903.56;5029132;28;20194;-69
2021/09/10 00:06:14;;;;;;;10.77;5.77;;;;;;;15.78;71.13;100894.13;5030070;28;20186;-68
2021/09/10 00:08:42;;;;;;;9.67;5.90;;;;;;;15.82;71.28;100904.56;5028830;28;20201;-69
2021/09/10 00:11:10;;;;;;;9.60;5.70;;;;;;;15.83;71.48;100906.28;5030173;28;20205;-69
2021/09/10 00:13:38;;;;;;;10.00;5.87;;;;;;;15.81;71.05;100910.09;5029569;28;20263;-68
2021/09/10 00:16:06;;;;;;;10.30;5.97;;;;;;;15.78;71.36;100908.53;5029962;28;20677;-68
2021/09/10 00:18:34;;;;;;;10.60;6.33;;;;;;;15.74;71.93;100906.22;5029692;28;20277;-69
2021/09/10 00:21:04;;;;;;;12.63;5.80;;;;;;;15.74;72.12;100906.22;5045239;28;20206;-69
2021/09/10 00:23:32;;;;;;;9.57;6.13;;;;;;;15.72;72.35;100914.47;5016310;28;20229;-68
2021/09/10 00:26:01;;;;;;;10.10;5.83;;;;;;;15.74;71.96;100912.50;5030043;28;20214;-68
2021/09/10 00:28:29;;;;;;;9.67;5.57;;;;;;;15.72;71.81;100914.47;5029848;28;20200;-68
2021/09/10 00:30:57;;;;;;;9.33;5.57;;;;;;;15.70;71.58;100910.19;5029647;28;20198;-68
2021/09/10 00:33:25;;;;;;;9.17;5.27;;;;;;;15.26;72.81;100851.72;5029788;28;20722;-68
2021/09/10 00:35:55;;;;;;;9.27;5.60;;;;;;;15.54;72.54;100916.03;5044751;28;20211;-69
2021/09/10 00:38:24;;;;;;;11.03;6.00;;;;;;;15.53;72.55;100908.91;5029619;28;20235;-68
2021/09/10 00:40:52;;;;;;;10.43;6.43;;;;;;;15.46;72.92;100910.41;5029414;28;20199;-69
2021/09/10 00:43:20;;;;;;;11.07;5.87;;;;;;;15.47;72.37;100914.84;5029653;28;20713;-68
2021/09/10 00:45:49;;;;;;;8.93;5.63;;;;;;;15.46;72.44;100918.53;5029603;28;20217;-69
2021/09/10 00:48:20;;;;;;;12.40;5.60;;;;;;;15.42;72.83;100917.94;5029555;28;20286;-69
2021/09/10 00:50:49;;;;;;;9.00;5.13;;;;;;;15.38;72.74;100926.47;5029479;28;20206;-68
2021/09/10 00:53:17;;;;;;;9.40;5.47;;;;;;;15.36;72.29;100914.91;5029840;28;20235;-69
2021/09/10 00:55:47;;;;;;;12.37;6.27;;;;;;;15.37;72.10;100925.59;5044545;28;20326;-68
2021/09/10 00:58:16;;;;;;;16.03;6.40;;;;;;;15.36;72.39;100931.16;5044259;28;20260;-68
2021/09/10 01:00:44;;;;;;;9.90;5.80;;;;;;;15.39;72.17;100929.03;5027488;28;20231;-69
2021/09/10 01:03:13;;;;;;;11.70;6.47;;;;;;;15.40;71.91;100927.19;5032294;28;20205;-68
2021/09/10 01:05:42;;;;;;;8.77;5.47;;;;;;;15.28;72.24;100930.91;5041269;28;20201;-68
2021/09/10 01:08:11;;;;;;;11.03;6.17;;;;;;;15.16;72.75;100928.25;5025665;28;20199;-68
2021/09/10 01:10:40;;;;;;;12.93;6.17;;;;;;;15.08;73.74;100933.47;5028948;28;20206;-68
2021/09/10 01:13:12;;;;;;;12.27;5.80;;;;;;;15.09;72.98;100932.47;5028829;28;20619;-68
2021/09/10 01:15:41;;;;;;;10.50;6.07;;;;;;;15.05;72.73;100922.91;5026278;28;20207;-68
2021/09/10 01:18:09;;;;;;;12.97;5.47;;;;;;;15.19;72.95;100932.56;5028126;28;20689;-69
2021/09/10 01:20:37;;;;;;;11.10;6.17;;;;;;;15.22;72.92;100926.88;5044435;28;20310;-69
2021/09/10 01:23:05;;;;;;;10.33;6.13;;;;;;;15.25;72.89;100931.19;5029070;28;20552;-69
2021/09/10 01:25:34;;;;;;;10.17;6.23;;;;;;;15.30;73.08;100923.53;5029134;28;20198;-68
2021/09/10 01:28:03;;;;;;;9.80;5.87;;;;;;;15.31;73.20;100925.28;5029014;28;20210;-69
2021/09/10 01:30:33;;;;;;;9.57;5.90;;;;;;;15.27;74.17;100930.06;5028970;28;20693;-68
2021/09/10 01:33:04;;;;;;;10.07;5.83;;;;;;;15.29;73.94;100933.50;5028556;28;20214;-69
2021/09/10 01:35:32;;;;;;;9.60;5.57;;;;;;;15.34;73.76;100936.69;5044546;28;20641;-69
2021/09/10 01:38:01;;;;;;;12.27;5.97;;;;;;;15.37;73.38;100940.97;5028876;28;20288;-69
2021/09/10 01:40:29;;;;;;;9.87;5.40;;;;;;;15.28;73.09;100915.53;5028631;28;20218;-69
2021/09/10 01:42:58;;;;;;;8.57;5.40;;;;;;;15.47;73.18;100941.91;5028714;28;20202;-69
2021/09/10 01:45:26;;;;;;;9.13;5.50;;;;;;;15.48;73.09;100936.38;5028674;28;20210;-69
2021/09/10 01:47:54;;;;;;;12.27;5.90;;;;;;;15.52;72.35;100945.06;5028699;28;20728;-68
2021/09/10 01:50:23;;;;;;;9.57;5.87;;;;;;;15.49;73.03;100938.06;5043972;28;20201;-70
2021/09/10 01:52:52;;;;;;;9.50;6.07;;;;;;;15.57;72.43;100947.38;5043789;28;20260;-69
2021/09/10 01:55:20;;;;;;;9.70;5.97;;;;;;;15.50;73.81;100944.34;5028869;28;20585;-70
2021/09/10 01:57:50;;;;;;;9.53;5.87;;;;;;;15.47;74.34;100950.03;5028580;28;20206;-70
2021/09/10 02:00:20;;;;;;;10.70;5.50;;;;;;;15.45;74.12;100939.34;5038195;28;20223;-68
2021/09/10 02:02:49;;;;;;;10.97;6.13;;;;;;;15.49;73.98;100940.78;5015693;28;20281;-70
2021/09/10 02:05:17;;;;;;;11.03;5.93;;;;;;;15.49;73.91;100943.50;5024202;28;20610;-68
2021/09/10 02:07:45;;;;;;;13.40;6.20;;;;;;;15.51;73.56;100943.38;5027177;28;20210;-68
2021/09/10 02:10:15;;;;;;;11.07;5.97;;;;;;;15.55;72.97;100947.53;5030470;28;20205;-68
2021/09/10 02:12:43;;;;;;;8.57;5.50;;;;;;;15.56;72.71;100946.53;5032159;28;20615;-68
2021/09/10 02:15:13;;;;;;;9.80;6.20;;;;;;;15.51;72.85;100932.53;5033116;28;20202;-68
2021/09/10 02:17:43;;;;;;;8.97;5.57;;;;;;;15.57;72.56;100945.53;5032149;28;20230;-68
2021/09/10 02:20:11;;;;;;;11.13;6.43;;;;;;;15.57;72.90;100947.38;5019300;28;20308;-69
2021/09/10 02:22:40;;;;;;;10.17;5.63;;;;;;;15.52;73.19;100947.78;5032611;28;20202;-69
2021/09/10 02:25:09;;;;;;;11.10;6.10;;;;;;;15.47;73.55;100941.91;5032258;28;20252;-69
2021/09/10 02:27:37;;;;;;;12.60;6.07;;;;;;;15.45;73.97;100952.00;5032461;28;20213;-69
2021/09/10 02:30:06;;;;;;;9.27;5.57;;;;;;;15.41;72.98;100943.28;5032012;28;20213;-69
2021/09/10 02:32:34;;;;;;;11.83;6.27;;;;;;;15.44;73.49;100947.59;5032161;28;20276;-69
2021/09/10 02:35:05;;;;;;;12.13;6.40;;;;;;;15.41;73.80;100953.25;5031905;28;20817;-69
2021/09/10 02:37:33;;;;;;;9.40;5.77;;;;;;;15.38;73.61;100954.38;5032236;28;20213;-70
2021/09/10 02:40:02;;;;;;;11.10;5.77;;;;;;;15.38;73.66;100953.53;5047221;28;20219;-69
2021/09/10 02:42:30;;;;;;;10.33;5.40;;;;;;;15.28;74.29;100956.13;5047394;28;20677;-70
2021/09/10 02:44:58;;;;;;;11.13;5.60;;;;;;;15.31;74.13;100955.03;5031668;28;20252;-69
2021/09/10 02:47:26;;;;;;;9.50;6.07;;;;;;;15.31;74.63;100961.31;5032127;28;20210;-69
2021/09/10 02:49:54;;;;;;;9.57;5.60;;;;;;;15.35;73.93;100954.66;5031762;28;20536;-69
2021/09/10 02:52:24;;;;;;;9.23;5.20;;;;;;;15.39;72.93;100955.25;5031551;28;20268;-69
2021/09/10 02:54:53;;;;;;;9.80;5.67;;;;;;;15.38;73.12;100953.53;5031840;28;20221;-69
2021/09/10 02:57:22;;;;;;;9.17;5.43;;;;;;;15.39;73.69;100956.09;5031678;28;20220;-69
2021/09/10 02:59:50;;;;;;;9.87;6.10;;;;;;;15.35;73.86;100954.66;5031506;28;20252;-69
2021/09/10 03:02:19;;;;;;;13.63;6.03;;;;;;;15.39;73.64;100955.25;5031997;28;20270;-69
2021/09/10 03:04:48;;;;;;;10.00;5.47;;;;;;;15.29;74.29;100955.13;5031602;28;20199;-69
2021/09/10 03:07:17;;;;;;;9.63;6.23;;;;;;;15.29;74.19;100948.88;5031650;28;20539;-69
2021/09/10 03:09:46;;;;;;;8.97;6.10;;;;;;;15.28;74.11;100947.16;5046683;28;20276;-69
2021/09/10 03:12:14;;;;;;;11.13;5.90;;;;;;;15.32;73.64;100948.63;5031237;28;20210;-69
2021/09/10 03:14:42;;;;;;;14.00;6.17;;;;;;;15.31;74.15;100946.91;5031446;28;20206;-69
2021/09/10 03:17:10;;;;;;;10.00;5.87;;;;;;;15.31;73.54;100946.91;5046643;28;20676;-69
2021/09/10 03:19:39;;;;;;;9.53;5.70;;;;;;;15.10;73.56;100917.97;5031242;28;20202;-69
2021/09/10 03:22:08;;;;;;;8.43;5.47;;;;;;;15.31;73.46;100946.91;5030597;28;20211;-69
2021/09/10 03:24:36;;;;;;;10.67;5.83;;;;;;;15.29;73.62;100954.28;5031295;28;20471;-69
2021/09/10 03:27:06;;;;;;;11.60;5.90;;;;;;;15.30;73.15;100956.00;5030962;28;20195;-69
2021/09/10 03:29:34;;;;;;;13.80;5.87;;;;;;;15.29;73.55;100955.13;5030660;28;20202;-69
2021/09/10 03:32:02;;;;;;;9.70;5.77;;;;;;;15.22;74.02;100952.09;5016626;28;20240;-69
2021/09/10 03:34:30;;;;;;;8.93;5.67;;;;;;;15.18;73.84;100947.94;5030391;28;20615;-69
2021/09/10 03:36:59;;;;;;;12.00;5.33;;;;;;;15.16;74.66;100947.22;5030243;28;20562;-70
2021/09/10 03:39:27;;;;;;;10.10;5.83;;;;;;;15.09;74.57;100950.56;5030491;28;20259;-68
2021/09/10 03:41:55;;;;;;;10.80;5.97;;;;;;;15.02;74.89;100947.50;5030032;28;20229;-69
2021/09/10 03:44:24;;;;;;;12.30;6.50;;;;;;;14.95;76.19;100953.53;5030342;28;20305;-69
2021/09/10 03:46:52;;;;;;;10.97;6.13;;;;;;;14.92;74.26;100927.59;5029236;28;20202;-70
2021/09/10 03:49:20;;;;;;;12.23;6.67;;;;;;;14.98;74.17;100928.94;5030280;28;20629;-69
2021/09/10 03:51:49;;;;;;;12.00;6.30;;;;;;;15.06;74.73;100937.28;5029882;28;20199;-69
2021/09/10 03:54:17;;;;;;;11.17;5.93;;;;;;;15.06;74.31;100938.16;5028515;28;20248;-69
2021/09/10 03:56:45;;;;;;;12.40;6.03;;;;;;;15.09;74.99;100947.84;5023808;28;20645;-69
2021/09/10 03:59:13;;;;;;;10.07;5.80;;;;;;;15.13;74.54;100950.16;5027342;28;20206;-69
2021/09/10 04:01:43;;;;;;;10.70;6.00;;;;;;;15.18;73.94;100950.63;5024337;28;20748;-69
2021/09/10 04:04:11;;;;;;;9.10;5.43;;;;;;;15.20;73.36;100950.50;5028615;28;20572;-69
2021/09/10 04:06:41;;;;;;;14.73;6.00;;;;;;;15.29;72.60;100943.47;5029085;28;20593;-69
2021/09/10 04:09:10;;;;;;;10.27;6.27;;;;;;;15.35;73.24;100953.78;5027116;28;20335;-69
2021/09/10 04:11:39;;;;;;;9.63;6.37;;;;;;;15.15;74.56;100925.69;5029982;28;20253;-70
2021/09/10 04:14:07;;;;;;;12.70;5.77;;;;;;;15.36;73.47;100950.09;5029299;28;20245;-71
2021/09/10 04:16:35;;;;;;;10.83;6.37;;;;;;;15.37;74.60;100946.41;5029578;28;20680;-70
2021/09/10 04:19:05;;;;;;;9.60;6.17;;;;;;;15.40;74.53;100944.28;5024502;28;20669;-73
2021/09/10 04:21:34;;;;;;;13.97;6.43;;;;;;;15.41;74.30;100947.84;5028010;28;20211;-71
2021/09/10 04:24:02;;;;;;;14.20;6.50;;;;;;;15.42;75.07;100949.56;5027889;28;20202;-73
2021/09/10 04:26:30;;;;;;;12.70;6.90;;;;;;;15.43;74.85;100945.88;5025515;28;20609;-72
2021/09/10 04:28:58;;;;;;;12.80;6.90;;;;;;;15.47;74.92;100941.91;5027942;28;20203;-73
2021/09/10 04:31:26;;;;;;;11.03;6.23;;;;;;;15.54;74.56;100948.50;5026924;28;20230;-72
2021/09/10 04:33:54;;;;;;;10.23;6.63;;;;;;;15.60;74.53;100944.44;5027341;28;20193;-72
2021/09/10 04:36:23;;;;;;;10.10;6.20;;;;;;;15.65;74.24;100950.34;5026897;28;20564;-72
2021/09/10 04:38:51;;;;;;;12.03;6.50;;;;;;;15.71;73.63;100955.22;5025323;28;20202;-72
2021/09/10 04:41:19;;;;;;;10.53;5.57;;;;;;;15.75;72.62;100957.53;5027176;28;20215;-69
2021/09/10 04:43:47;;;;;;;10.73;6.33;;;;;;;15.78;72.67;100959.97;5024037;28;20264;-70
2021/09/10 04:46:16;;;;;;;11.50;6.23;;;;;;;15.77;72.70;100958.28;5028164;28;20199;-70
2021/09/10 04:48:44;;;;;;;12.07;7.10;;;;;;;15.58;72.11;100912.09;5025159;28;20202;-70
2021/09/10 04:51:12;;;;;;;13.47;6.77;;;;;;;15.91;71.48;100967.03;5026072;28;20609;-69
2021/09/10 04:53:42;;;;;;;12.47;6.97;;;;;;;15.92;73.39;100966.03;5018455;28;20203;-69
2021/09/10 04:56:10;;;;;;;13.33;6.87;;;;;;;15.89;73.92;100969.88;5027648;28;20226;-69
2021/09/10 04:58:38;;;;;;;12.43;6.80;;;;;;;15.90;74.44;100965.31;5027492;28;20233;-69
2021/09/10 05:01:06;;;;;;;12.13;6.37;;;;;;;15.99;73.62;100976.25;5024502;28;20207;-69
2021/09/10 05:03:35;;;;;;;13.40;6.43;;;;;;;16.03;73.51;100982.25;5025395;28;20282;-70
2021/09/10 05:06:04;;;;;;;18.83;7.43;;;;;;;16.06;73.34;100985.56;5022983;28;20214;-69
2021/09/10 05:08:32;;;;;;;12.30;6.97;;;;;;;16.12;72.82;100978.72;5028212;28;20549;-70
2021/09/10 05:11:02;;;;;;;12.90;7.20;;;;;;;16.04;75.98;100983.97;5026206;28;20195;-69
2021/09/10 05:13:30;;;;;;;14.07;7.33;;;;;;;16.09;75.18;100987.13;5027281;28;20269;-70
2021/09/10 05:15:58;;;;;;;15.13;8.63;;;;;;;16.11;76.40;100977.88;5026882;28;20202;-69
2021/09/10 05:18:26;;;;;;;15.80;8.30;;;;;;;16.13;78.27;100988.56;5026272;28;20242;-69
2021/09/10 05:20:55;;;;;;;17.13;8.03;;;;;;;16.19;77.36;100981.75;5043085;28;20321;-69
2021/09/10 05:23:23;;;;;;;15.33;7.60;;;;;;;16.11;82.32;100990.56;5027887;28;20195;-68
2021/09/10 05:25:51;;;;;;;15.70;7.23;;;;;;;16.07;82.17;100995.41;5026704;28;20204;-69
2021/09/10 05:28:20;;;;;;;16.63;7.30;;;;;;;16.00;84.01;100990.66;5027705;28;20209;-68
2021/09/10 05:30:48;;;;;;;17.43;7.37;;;;;;;15.82;83.47;100953.31;5027849;28;20373;-69
2021/09/10 05:33:16;;;;;;;15.60;6.67;;;;;;;15.92;86.45;100994.03;5028187;28;20534;-70
2021/09/10 05:35:44;;;;;;;14.93;7.70;;;;;;;16.01;85.44;100995.94;5026601;28;20783;-70
2021/09/10 05:38:12;;;;;;;15.50;7.80;;;;;;;16.00;85.94;100998.78;5022020;28;20206;-70
2021/09/10 05:40:41;;;;;;;14.03;7.27;;;;;;;16.03;86.30;100995.78;5027982;28;20205;-70
2021/09/10 05:43:09;;;;;;;15.27;7.10;;;;;;;15.93;86.75;100997.59;5027544;28;20281;-69
2021/09/10 05:45:38;;;;;;;15.73;7.00;;;;;;;16.07;85.85;100997.25;5025407;28;20222;-69
2021/09/10 05:48:07;;;;;;;11.43;6.03;;;;;;;15.87;86.75;100977.28;5027380;28;20281;-69
2021/09/10 05:50:35;;;;;;;12.90;6.10;;;;;;;16.00;86.64;100998.78;5027634;28;20206;-69
2021/09/10 05:53:05;;;;;;;12.67;5.37;;;;;;;16.09;86.11;101012.38;5027715;28;20217;-69
2021/09/10 05:55:33;;;;;;;7.50;4.67;;;;;;;15.90;85.93;100971.59;5027851;28;20278;-70
2021/09/10 05:58:01;;;;;;;6.87;4.17;;;;;;;16.02;87.35;101007.63;5027636;28;20537;-69
2021/09/10 06:00:29;;;;;;;7.67;4.57;;;;;;;16.08;86.92;101010.66;5027652;28;20203;-70
2021/09/10 06:02:58;;;;;;;10.20;4.13;;;;;;;15.93;87.80;101009.28;5027294;28;20215;-69
2021/09/10 06:05:27;;;;;;;11.90;4.47;;;;;;;15.86;88.16;101007.22;5027609;28;20209;-69
2021/09/10 06:07:55;;;;;;;8.40;4.33;;;;;;;15.95;87.42;101011.88;5027504;28;20186;-69
2021/09/10 06:10:23;;;;;;;15.33;5.03;;;;;;;16.04;87.03;101011.91;5027234;28;20748;-69
2021/09/10 06:12:51;;;;;;;8.33;4.60;;;;;;;16.03;87.81;101014.75;5016083;28;20633;-69
2021/09/10 06:15:19;;;;;;;8.63;4.10;;;;;;;16.02;87.95;101018.47;5027545;28;20662;-69
2021/09/10 06:17:48;;;;;;;5.40;3.77;;;;;;;15.92;88.25;101022.94;5027153;28;20276;-69
2021/09/10 06:20:18;;;;;;;8.30;4.20;;;;;;;15.99;88.12;101022.28;5028062;28;20202;-69
2021/09/10 06:22:46;;;;;;;8.67;4.30;;;;;;;15.97;88.85;101024.28;5043242;28;20296;-69
2021/09/10 06:25:14;;;;;;;9.63;4.60;;;;;;;16.01;88.37;101024.88;5027931;28;20689;-70
2021/09/10 06:27:42;;;;;;;8.47;4.40;;;;;;;16.10;87.72;101027.63;5028111;28;20202;-69
2021/09/10 06:30:11;;;;;;;6.43;4.10;;;;;;;15.80;88.81;100995.91;5027282;28;20207;-69
2021/09/10 06:32:39;;;;;;;10.10;5.57;;;;;;;16.05;88.62;101040.72;5027933;28;20642;-69
2021/09/10 06:35:08;;;;;;;10.23;5.50;;;;;;;16.07;88.54;101033.31;5027043;28;20195;-69
2021/09/10 06:37:37;;;;;;;10.80;5.63;;;;;;;16.11;88.10;101034.78;5027670;28;20233;-70
2021/09/10 06:40:07;;;;;;;11.37;5.93;;;;;;;16.11;88.47;101032.06;5027184;28;20800;-69
2021/09/10 06:42:35;;;;;;;13.67;6.20;;;;;;;16.05;89.17;101038.03;5027421;28;20222;-69
2021/09/10 06:45:04;;;;;;;9.07;5.00;;;;;;;16.00;88.62;101034.00;5027275;28;20654;-70
2021/09/10 06:47:32;;;;;;;11.00;5.00;;;;;;;15.96;88.60;101003.59;5027547;28;20697;-70
2021/09/10 06:50:02;;;;;;;10.27;5.70;;;;;;;16.24;88.38;101040.00;5027334;28;20747;-69
2021/09/10 06:52:30;;;;;;;10.70;5.30;;;;;;;16.20;87.97;101043.94;5019723;28;20204;-69
2021/09/10 06:55:07;;;;;;;7.90;4.60;;;;;;;16.17;88.41;101033.38;5020555;28;20618;-69
2021/09/10 06:57:36;;;;;;;9.73;4.70;;;;;;;16.23;88.24;101042.84;5029626;28;20599;-68
2021/09/10 07:00:05;;;;;;;8.77;5.07;;;;;;;16.27;88.17;101047.88;5030714;28;20276;-68
2021/09/10 07:02:33;;;;;;;8.53;4.67;;;;;;;16.30;87.65;101041.31;5030730;28;20218;-69
2021/09/10 07:05:01;;;;;;;10.33;5.07;;;;;;;16.45;87.65;101054.38;5030440;28;20198;-69
2021/09/10 07:07:29;;;;;;;8.00;4.63;;;;;;;16.41;87.56;101050.22;5030465;28;20209;-69
2021/09/10 07:09:59;;;;;;;11.23;5.10;;;;;;;16.36;87.70;101046.19;5030446;28;20218;-69
2021/09/10 07:12:28;;;;;;;8.27;4.80;;;;;;;16.26;87.56;101054.28;5030708;28;20203;-69
2021/09/10 07:14:56;;;;;;;7.27;5.00;;;;;;;16.21;87.43;101045.66;5030360;28;20202;-69
2021/09/10 07:17:24;;;;;;;9.13;4.93;;;;;;;16.24;88.06;101050.84;5030422;28;20242;-69
2021/09/10 07:19:52;;;;;;;11.07;4.80;;;;;;;16.29;87.14;101056.72;5030178;28;20199;-69
2021/09/10 07:22:20;;;;;;;9.00;4.83;;;;;;;16.31;87.90;101057.44;5029501;28;20619;-69
2021/09/10 07:24:48;;;;;;;8.87;4.87;;;;;;;16.37;87.42;101062.34;5028579;28;20206;-69
2021/09/10 07:27:17;;;;;;;9.47;4.73;;;;;;;16.43;87.03;101053.66;5030365;28;20202;-69
2021/09/10 07:29:46;;;;;;;8.97;4.87;;;;;;;16.33;87.93;101055.47;5030444;28;20289;-68
2021/09/10 07:32:14;;;;;;;9.27;4.57;;;;;;;16.40;87.70;101056.63;5030323;28;20658;-68
2021/09/10 07:34:42;;;;;;;8.33;4.60;;;;;;;16.60;86.13;101054.91;5030031;28;20215;-69
2021/09/10 07:37:10;;;;;;;7.13;4.40;;;;;;;16.66;86.13;101062.53;5029671;28;20210;-68
2021/09/10 07:39:38;;;;;;;6.70;4.17;;;;;;;16.64;85.67;101066.34;5030119;28;20672;-68
2021/09/10 07:42:06;;;;;;;7.00;3.53;;;;;;;16.66;86.10;101075.22;5029834;28;20627;-68
2021/09/10 07:44:35;;;;;;;5.90;3.63;;;;;;;16.63;85.45;101075.47;5025771;28;20198;-69
2021/09/10 07:47:04;;;;;;;6.37;4.10;;;;;;;16.06;86.18;100998.22;5026872;28;20195;-68
2021/09/10 07:49:32;;;;;;;7.97;4.73;;;;;;;16.54;86.41;101068.16;5027099;28;20190;-69
2021/09/10 07:52:00;;;;;;;8.67;4.07;;;;;;;16.57;85.75;101078.72;5028439;28;20225;-69
2021/09/10 07:54:28;;;;;;;6.97;4.07;;;;;;;16.73;85.72;101076.41;5026341;28;20658;-69
2021/09/10 07:57:03;;;;;;;6.37;4.27;;;;;;;16.59;86.04;101049.63;5027709;28;20202;-70
2021/09/10 07:59:31;;;;;;;8.07;4.33;;;;;;;16.88;85.55;101066.91;5029238;28;20233;-68
2021/09/10 08:01:59;;;;;;;8.87;4.53;;;;;;;16.80;85.27;101083.00;5026118;28;20669;-68
2021/09/10 08:04:30;;;;;;;7.43;4.23;;;;;;;16.77;85.29;101076.00;5028902;28;20697;-70
2021/09/10 08:06:58;;;;;;;6.60;3.77;;;;;;;16.87;85.06;101081.47;5028021;28;20199;-69
2021/09/10 08:09:27;;;;;;;7.20;4.03;;;;;;;16.57;84.45;100998.22;5026736;28;20569;-70
2021/09/10 08:11:55;;;;;;;8.70;4.70;;;;;;;17.00;84.86;101078.53;5027950;28;20199;-70
2021/09/10 08:14:23;;;;;;;7.90;4.50;;;;;;;17.10;83.84;101087.53;5027340;28;20379;-70
2021/09/10 08:16:51;;;;;;;7.53;4.37;;;;;;;17.04;84.34;101086.25;5043056;28;20203;-70
2021/09/10 08:19:20;;;;;;;5.93;4.13;;;;;;;16.91;84.73;101087.50;5042698;28;20234;-70
2021/09/10 08:21:49;;;;;;;8.40;4.00;;;;;;;16.85;85.05;101086.19;5028422;28;20654;-70
2021/09/10 08:24:17;;;;;;;8.03;3.97;;;;;;;16.92;84.51;101083.78;5028200;28;20223;-68
2021/09/10 08:26:45;;;;;;;9.97;4.23;;;;;;;16.98;84.71;101077.78;5027858;28;20547;-70
2021/09/10 08:29:13;;;;;;;7.33;4.10;;;;;;;17.10;85.11;101076.69;5042012;28;20199;-70
2021/09/10 08:31:42;;;;;;;6.73;4.47;;;;;;;17.19;84.69;101075.03;5026210;28;20568;-69
2021/09/10 08:34:10;;;;;;;5.53;3.63;;;;;;;17.25;84.44;101082.59;5025660;28;20205;-70
2021/09/10 08:36:38;;;;;;;6.50;4.07;;;;;;;17.29;83.87;101075.91;5024799;28;20264;-69
2021/09/10 08:39:07;;;;;;;5.67;3.80;;;;;;;16.92;83.75;101008.66;5025144;28;20190;-70
2021/09/10 08:41:40;;;;;;;7.30;4.40;;;;;;;17.24;82.74;101087.19;5024516;28;20682;-69
2021/09/10 08:44:08;;;;;;;6.57;4.07;;;;;;;17.20;82.84;101087.59;5023181;28;20238;-69
2021/09/10 08:46:38;;;;;;;6.93;4.23;;;;;;;17.19;83.38;101083.16;5026175;28;20207;-69
2021/09/10 08:49:09;;;;;;;6.67;4.00;;;;;;;17.37;82.81;101079.63;5026619;28;20194;-69
2021/09/10 08:51:37;;;;;;;6.23;3.87;;;;;;;17.35;82.40;101083.47;5025731;28;20693;-69
2021/09/10 08:54:05;;;;;;;6.67;3.73;;;;;;;17.46;82.15;101083.38;5026963;28;20685;-68
2021/09/10 08:56:35;;;;;;;6.13;3.60;;;;;;;17.51;81.84;101085.66;5026909;28;20199;-68
2021/09/10 08:59:08;;;;;;;7.13;4.00;;;;;;;17.48;81.52;101092.25;5026915;28;20215;-69
2021/09/10 09:01:46;;;;;;;7.27;4.23;;;;;;;17.50;82.06;101090.25;5026700;28;20206;-68
2021/09/10 09:04:15;;;;;;;10.40;4.30;;;;;;;17.61;81.14;101081.97;5026302;28;20700;-68
2021/09/10 09:06:49;;;;;;;7.53;4.10;;;;;;;17.52;81.71;101085.53;5026211;28;20203;-68
2021/09/10 09:09:34;;;;;;;7.27;4.73;;;;;;;17.65;80.39;101086.09;5026141;28;20205;-69
2021/09/10 09:12:19;;;;;;;6.07;3.83;;;;;;;17.78;80.34;101085.88;5025959;28;20202;-69
2021/09/10 09:14:52;;;;;;;10.00;4.80;;;;;;;17.76;80.36;101089.75;5024502;28;20691;-69
2021/09/10 09:17:28;;;;;;;7.97;4.60;;;;;;;17.79;80.41;101089.47;5026912;28;20238;-70
2021/09/10 09:20:20;;;;;;;8.20;4.90;;;;;;;17.62;80.43;101080.97;5026238;28;20195;-70
2021/09/10 09:23:02;;;;;;;10.13;5.17;;;;;;;17.41;80.88;101082.06;5041994;28;20218;-71
2021/09/10 09:25:36;;;;;;;9.13;5.27;;;;;;;17.25;81.34;101085.31;5023554;28;20251;-70
2021/09/10 09:28:20;;;;;;;8.63;5.23;;;;;;;17.24;81.90;101094.47;5025948;28;20206;-70
2021/09/10 09:30:50;;;;;;;9.93;5.20;;;;;;;17.37;81.42;101104.06;5022375;28;20213;-70
2021/09/10 09:33:19;;;;;;;10.93;5.13;;;;;;;17.26;81.94;101100.63;5025080;28;20198;-70
2021/09/10 09:35:51;;;;;;;12.27;6.10;;;;;;;17.12;82.23;101090.97;5026181;28;20213;-70
2021/09/10 09:38:24;;;;;;;11.87;6.33;;;;;;;17.10;82.52;101097.53;5040793;28;20206;-70
2021/09/10 09:40:54;;;;;;;12.10;5.70;;;;;;;17.11;82.71;101099.25;5025873;28;20557;-70
2021/09/10 09:43:28;;;;;;;11.43;5.87;;;;;;;17.11;83.23;101099.25;5041251;28;20574;-70
2021/09/10 09:45:57;;;;;;;9.73;5.63;;;;;;;17.10;83.16;101092.13;5025174;28;20222;-70
2021/09/10 09:48:27;;;;;;;12.90;6.50;;;;;;;17.07;83.24;101094.09;5025362;28;20210;-70
2021/09/10 09:50:57;;;;;;;10.50;6.03;;;;;;;17.01;83.26;101083.81;5025612;28;20613;-70
2021/09/10 09:53:26;;;;;;;11.67;6.13;;;;;;;17.06;83.06;101065.25;5025998;28;20207;-70
2021/09/10 09:55:54;;;;;;;11.43;5.80;;;;;;;17.22;82.75;101094.59;5024678;28;20693;-70
2021/09/10 09:58:24;;;;;;;13.67;5.93;;;;;;;17.33;82.05;101093.63;5022480;28;20210;-70
2021/09/10 10:00:52;;;;;;;12.23;6.40;;;;;;;17.21;83.34;101087.47;5025004;28;20195;-70
2021/09/10 10:03:20;;;;;;;14.33;6.47;;;;;;;17.16;83.00;101094.31;5025256;28;20285;-70
2021/09/10 10:06:05;;;;;;;12.30;5.93;;;;;;;17.28;82.78;101090.47;5024539;28;20309;-70
2021/09/10 10:08:41;;;;;;;10.17;5.77;;;;;;;17.26;82.84;101092.47;5024287;28;20203;-70
2021/09/10 10:11:13;;;;;;;11.73;5.77;;;;;;;17.11;83.14;101099.25;5023310;28;20205;-70
2021/09/10 10:13:43;;;;;;;12.27;5.60;;;;;;;17.04;82.32;101088.97;5026494;28;20199;-70
2021/09/10 10:16:39;;;;;;;11.63;5.90;;;;;;;17.16;82.55;101086.16;5025823;28;20195;-70
2021/09/10 10:19:27;;;;;;;9.10;5.03;;;;;;;17.19;83.27;101088.59;5025626;28;20329;-70
2021/09/10 10:21:57;;;;;;;9.90;5.70;;;;;;;17.11;83.74;101086.53;5025871;28;20199;-70
2021/09/10 10:24:44;;;;;;;11.60;5.70;;;;;;;17.12;82.99;101090.13;5026346;28;20586;-70
2021/09/10 10:27:34;;;;;;;12.60;5.77;;;;;;;17.16;83.01;101091.59;5025625;28;20574;-70
2021/09/10 10:30:06;;;;;;;9.50;5.03;;;;;;;17.11;82.32;101089.25;5025641;28;20218;-71
2021/09/10 10:32:37;;;;;;;9.23;5.10;;;;;;;17.12;82.40;101084.69;5028924;28;20313;-70
2021/09/10 10:35:30;;;;;;;12.57;5.30;;;;;;;17.19;83.17;101092.16;5029830;28;20609;-71
2021/09/10 10:38:06;;;;;;;9.93;5.43;;;;;;;17.46;80.87;101096.97;5029537;28;20222;-70
2021/09/10 10:40:37;;;;;;;10.27;5.57;;;;;;;17.30;81.48;101096.63;5029411;28;20658;-70
2021/09/10 10:43:09;;;;;;;11.33;5.50;;;;;;;17.28;81.71;101082.31;5029685;28;20280;-70
2021/09/10 10:46:07;;;;;;;9.33;5.13;;;;;;;17.54;80.98;101088.97;5028566;28;20227;-70
2021/09/10 10:48:52;;;;;;;10.07;5.87;;;;;;;17.01;81.61;101031.38;5019800;28;20534;-70
2021/09/10 10:51:42;;;;;;;11.93;5.93;;;;;;;17.36;81.73;101096.06;5029476;28;20190;-70
2021/09/10 10:54:11;;;;;;;11.47;6.07;;;;;;;17.29;81.95;101094.91;5028997;28;20673;-70
2021/09/10 10:56:47;;;;;;;11.43;6.10;;;;;;;17.22;82.15;101091.03;5026977;28;20194;-70
2021/09/10 10:59:32;;;;;;;9.87;5.70;;;;;;;17.26;81.68;101081.59;5029139;28;20268;-70
2021/09/10 11:02:37;;;;;;;9.17;5.50;;;;;;;17.27;82.31;101078.75;5028735;28;20205;-69
2021/09/10 11:05:26;;;;;;;8.83;5.00;;;;;;;17.36;81.55;101077.06;5028529;28;20226;-69
2021/09/10 11:07:54;;;;;;;9.97;5.47;;;;;;;17.34;81.06;101084.47;5028938;28;20574;-70
2021/09/10 11:10:22;;;;;;;8.50;5.40;;;;;;;17.13;81.86;101075.56;5028655;28;20198;-69
2021/09/10 11:12:56;;;;;;;9.67;5.10;;;;;;;17.02;82.71;101076.53;5029101;28;20244;-69
2021/09/10 11:15:26;;;;;;;10.67;5.30;;;;;;;17.05;82.80;101074.38;5028675;28;20312;-69
2021/09/10 11:18:01;;;;;;;8.07;4.53;;;;;;;17.17;82.67;101072.44;5028047;28;20253;-70
2021/09/10 11:20:35;;;;;;;10.17;5.33;;;;;;;17.22;82.33;101077.47;5029023;28;20194;-70
2021/09/10 11:23:04;;;;;;;12.33;5.40;;;;;;;17.30;82.27;101072.19;5028549;28;20202;-69
2021/09/10 11:25:33;;;;;;;10.50;5.83;;;;;;;17.30;82.32;101075.75;5028913;28;20284;-69
2021/09/10 11:28:08;;;;;;;10.37;5.23;;;;;;;17.33;81.48;101069.19;5028105;28;20669;-69
2021/09/10 11:30:37;;;;;;;9.23;5.20;;;;;;;17.25;81.86;101069.88;5027714;28;20213;-70
2021/09/10 11:33:05;;;;;;;8.47;5.00;;;;;;;17.18;81.91;101073.31;5028378;28;20693;-69
2021/09/10 11:35:38;;;;;;;9.37;5.53;;;;;;;16.99;82.69;101068.66;5028488;28;20203;-70